sensor_id;sensor_type;location;lat;lon;timestamp;P1;durP1;ratioP1;P2;durP2;ratioP2
8050;SDS011;4068;42.158;24.732;2023-05-19T00:01:05;6.93;;;3.28;;
8050;SDS011;4068;42.158;24.732;2023-05-19T00:03:31;5.50;;;3.15;;
8050;SDS011;4068;42.158;24.732;2023-05-19T00:06:04;5.05;;;3.70;;
8050;SDS011;4068;42.158;24.732;2023-05-19T00:08:33;3.22;;;2.80;;
8050;SDS011;4068;42.158;24.732;2023-05-19T00:10:59;4.30;;;3.00;;
8050;SDS011;4068;42.158;24.732;2023-05-19T00:13:25;3.30;;;3.00;;
8050;SDS011;4068;42.158;24.732;2023-05-19T00:15:51;4.00;;;3.28;;
8050;SDS011;4068;42.158;24.732;2023-05-19T00:18:17;3.95;;;2.83;;
8050;SDS011;4068;42.158;24.732;2023-05-19T00:20:42;3.05;;;2.85;;
8050;SDS011;4068;42.158;24.732;2023-05-19T00:23:09;3.33;;;3.00;;
8050;SDS011;4068;42.158;24.732;2023-05-19T00:25:35;3.55;;;3.15;;
8050;SDS011;4068;42.158;24.732;2023-05-19T00:28:00;3.67;;;3.00;;
8050;SDS011;4068;42.158;24.732;2023-05-19T00:30:27;4.88;;;3.15;;
8050;SDS011;4068;42.158;24.732;2023-05-19T00:32:53;4.05;;;3.67;;
8050;SDS011;4068;42.158;24.732;2023-05-19T00:35:19;3.58;;;3.17;;
8050;SDS011;4068;42.158;24.732;2023-05-19T00:37:44;3.10;;;2.80;;
8050;SDS011;4068;42.158;24.732;2023-05-19T00:40:10;3.83;;;3.38;;
8050;SDS011;4068;42.158;24.732;2023-05-19T00:42:36;5.32;;;3.15;;
8050;SDS011;4068;42.158;24.732;2023-05-19T00:45:03;3.10;;;2.88;;
8050;SDS011;4068;42.158;24.732;2023-05-19T00:47:29;3.33;;;3.03;;
8050;SDS011;4068;42.158;24.732;2023-05-19T00:49:54;4.80;;;3.10;;
8050;SDS011;4068;42.158;24.732;2023-05-19T00:52:20;3.67;;;2.90;;
8050;SDS011;4068;42.158;24.732;2023-05-19T00:54:45;4.43;;;3.28;;
8050;SDS011;4068;42.158;24.732;2023-05-19T00:57:12;3.80;;;3.25;;
8050;SDS011;4068;42.158;24.732;2023-05-19T00:59:38;4.18;;;3.40;;
8050;SDS011;4068;42.158;24.732;2023-05-19T01:02:04;3.90;;;2.97;;
8050;SDS011;4068;42.158;24.732;2023-05-19T01:04:30;3.45;;;3.15;;
8050;SDS011;4068;42.158;24.732;2023-05-19T01:06:59;3.45;;;3.13;;
8050;SDS011;4068;42.158;24.732;2023-05-19T01:09:24;3.28;;;2.97;;
8050;SDS011;4068;42.158;24.732;2023-05-19T01:11:50;3.58;;;3.28;;
8050;SDS011;4068;42.158;24.732;2023-05-19T01:14:16;5.25;;;3.20;;
8050;SDS011;4068;42.158;24.732;2023-05-19T01:16:49;4.60;;;3.35;;
8050;SDS011;4068;42.158;24.732;2023-05-19T01:22:13;5.25;;;3.38;;
8050;SDS011;4068;42.158;24.732;2023-05-19T01:30:23;4.40;;;3.42;;
8050;SDS011;4068;42.158;24.732;2023-05-19T01:32:56;5.47;;;3.53;;
8050;SDS011;4068;42.158;24.732;2023-05-19T01:35:24;3.88;;;3.20;;
8050;SDS011;4068;42.158;24.732;2023-05-19T01:37:53;4.43;;;3.20;;
8050;SDS011;4068;42.158;24.732;2023-05-19T01:40:23;5.63;;;2.95;;
8050;SDS011;4068;42.158;24.732;2023-05-19T01:42:53;3.40;;;3.10;;
8050;SDS011;4068;42.158;24.732;2023-05-19T01:45:22;4.70;;;3.20;;
8050;SDS011;4068;42.158;24.732;2023-05-19T01:47:50;6.60;;;3.20;;
8050;SDS011;4068;42.158;24.732;2023-05-19T01:50:18;3.80;;;3.28;;
8050;SDS011;4068;42.158;24.732;2023-05-19T01:52:43;4.35;;;3.63;;
8050;SDS011;4068;42.158;24.732;2023-05-19T01:55:09;5.30;;;3.88;;
8050;SDS011;4068;42.158;24.732;2023-05-19T02:02:54;3.90;;;3.50;;
8050;SDS011;4068;42.158;24.732;2023-05-19T02:08:33;3.90;;;3.40;;
8050;SDS011;4068;42.158;24.732;2023-05-19T02:11:10;3.40;;;3.10;;
8050;SDS011;4068;42.158;24.732;2023-05-19T02:13:43;5.55;;;3.55;;
8050;SDS011;4068;42.158;24.732;2023-05-19T02:16:14;3.53;;;3.22;;
8050;SDS011;4068;42.158;24.732;2023-05-19T02:18:41;4.32;;;3.38;;
8050;SDS011;4068;42.158;24.732;2023-05-19T02:21:10;5.50;;;3.25;;
8050;SDS011;4068;42.158;24.732;2023-05-19T02:23:38;3.70;;;3.13;;
8050;SDS011;4068;42.158;24.732;2023-05-19T02:26:05;4.97;;;3.70;;
8050;SDS011;4068;42.158;24.732;2023-05-19T02:28:32;7.68;;;3.55;;
8050;SDS011;4068;42.158;24.732;2023-05-19T02:30:58;4.05;;;3.45;;
8050;SDS011;4068;42.158;24.732;2023-05-19T02:33:25;5.80;;;3.80;;
8050;SDS011;4068;42.158;24.732;2023-05-19T02:35:51;3.65;;;3.28;;
8050;SDS011;4068;42.158;24.732;2023-05-19T02:38:17;5.75;;;3.67;;
8050;SDS011;4068;42.158;24.732;2023-05-19T02:40:42;5.88;;;3.45;;
8050;SDS011;4068;42.158;24.732;2023-05-19T02:43:07;7.90;;;3.55;;
8050;SDS011;4068;42.158;24.732;2023-05-19T02:45:33;4.82;;;4.00;;
8050;SDS011;4068;42.158;24.732;2023-05-19T02:47:58;6.22;;;3.60;;
8050;SDS011;4068;42.158;24.732;2023-05-19T02:50:24;5.97;;;3.78;;
8050;SDS011;4068;42.158;24.732;2023-05-19T02:52:49;5.95;;;4.00;;
8050;SDS011;4068;42.158;24.732;2023-05-19T02:55:16;3.75;;;3.45;;
8050;SDS011;4068;42.158;24.732;2023-05-19T02:57:42;5.85;;;4.05;;
8050;SDS011;4068;42.158;24.732;2023-05-19T03:00:07;4.47;;;3.53;;
8050;SDS011;4068;42.158;24.732;2023-05-19T03:02:33;4.57;;;4.10;;
8050;SDS011;4068;42.158;24.732;2023-05-19T03:04:59;7.18;;;4.00;;
8050;SDS011;4068;42.158;24.732;2023-05-19T03:07:27;8.40;;;4.07;;
8050;SDS011;4068;42.158;24.732;2023-05-19T03:09:52;6.20;;;3.80;;
8050;SDS011;4068;42.158;24.732;2023-05-19T03:12:18;4.60;;;3.72;;
8050;SDS011;4068;42.158;24.732;2023-05-19T03:14:44;5.38;;;4.15;;
8050;SDS011;4068;42.158;24.732;2023-05-19T03:17:09;4.18;;;3.78;;
8050;SDS011;4068;42.158;24.732;2023-05-19T03:19:35;5.03;;;3.95;;
8050;SDS011;4068;42.158;24.732;2023-05-19T03:22:00;5.82;;;4.20;;
8050;SDS011;4068;42.158;24.732;2023-05-19T03:24:26;6.15;;;4.20;;
8050;SDS011;4068;42.158;24.732;2023-05-19T03:26:51;8.23;;;5.05;;
8050;SDS011;4068;42.158;24.732;2023-05-19T03:29:17;5.85;;;4.25;;
8050;SDS011;4068;42.158;24.732;2023-05-19T03:31:42;6.32;;;3.67;;
8050;SDS011;4068;42.158;24.732;2023-05-19T03:34:07;5.82;;;4.10;;
8050;SDS011;4068;42.158;24.732;2023-05-19T03:36:33;4.95;;;3.75;;
8050;SDS011;4068;42.158;24.732;2023-05-19T03:39:03;4.43;;;4.00;;
8050;SDS011;4068;42.158;24.732;2023-05-19T03:41:31;5.35;;;3.88;;
8050;SDS011;4068;42.158;24.732;2023-05-19T03:43:57;4.97;;;4.10;;
8050;SDS011;4068;42.158;24.732;2023-05-19T03:46:22;6.03;;;4.18;;
8050;SDS011;4068;42.158;24.732;2023-05-19T03:48:48;7.10;;;4.13;;
8050;SDS011;4068;42.158;24.732;2023-05-19T03:51:13;6.28;;;4.03;;
8050;SDS011;4068;42.158;24.732;2023-05-19T03:53:39;9.15;;;3.70;;
8050;SDS011;4068;42.158;24.732;2023-05-19T03:56:05;5.55;;;3.67;;
8050;SDS011;4068;42.158;24.732;2023-05-19T03:58:31;3.90;;;3.60;;
8050;SDS011;4068;42.158;24.732;2023-05-19T04:00:58;6.03;;;4.00;;
8050;SDS011;4068;42.158;24.732;2023-05-19T04:03:23;7.32;;;4.40;;
8050;SDS011;4068;42.158;24.732;2023-05-19T04:05:52;5.13;;;4.15;;
8050;SDS011;4068;42.158;24.732;2023-05-19T04:08:17;7.00;;;4.00;;
8050;SDS011;4068;42.158;24.732;2023-05-19T04:10:43;3.90;;;3.50;;
8050;SDS011;4068;42.158;24.732;2023-05-19T04:13:08;7.35;;;4.18;;
8050;SDS011;4068;42.158;24.732;2023-05-19T04:15:34;8.93;;;3.88;;
8050;SDS011;4068;42.158;24.732;2023-05-19T04:18:00;10.30;;;4.55;;
8050;SDS011;4068;42.158;24.732;2023-05-19T04:20:25;8.07;;;4.45;;
8050;SDS011;4068;42.158;24.732;2023-05-19T04:22:51;4.40;;;3.65;;
8050;SDS011;4068;42.158;24.732;2023-05-19T04:25:16;6.47;;;4.05;;
8050;SDS011;4068;42.158;24.732;2023-05-19T04:27:44;6.35;;;4.32;;
8050;SDS011;4068;42.158;24.732;2023-05-19T04:30:10;7.85;;;4.20;;
8050;SDS011;4068;42.158;24.732;2023-05-19T04:32:36;7.18;;;4.53;;
8050;SDS011;4068;42.158;24.732;2023-05-19T04:35:01;5.47;;;4.00;;
8050;SDS011;4068;42.158;24.732;2023-05-19T04:37:28;14.40;;;4.07;;
8050;SDS011;4068;42.158;24.732;2023-05-19T04:39:54;6.25;;;4.72;;
8050;SDS011;4068;42.158;24.732;2023-05-19T04:42:19;5.93;;;4.45;;
8050;SDS011;4068;42.158;24.732;2023-05-19T04:44:45;9.77;;;4.43;;
8050;SDS011;4068;42.158;24.732;2023-05-19T04:47:13;7.22;;;3.95;;
8050;SDS011;4068;42.158;24.732;2023-05-19T04:49:38;5.85;;;4.32;;
8050;SDS011;4068;42.158;24.732;2023-05-19T04:52:07;10.18;;;3.80;;
8050;SDS011;4068;42.158;24.732;2023-05-19T04:54:35;8.32;;;4.30;;
8050;SDS011;4068;42.158;24.732;2023-05-19T04:57:01;4.78;;;4.18;;
8050;SDS011;4068;42.158;24.732;2023-05-19T04:59:27;14.35;;;4.45;;
8050;SDS011;4068;42.158;24.732;2023-05-19T05:01:53;6.65;;;4.00;;
8050;SDS011;4068;42.158;24.732;2023-05-19T05:04:20;4.57;;;3.78;;
8050;SDS011;4068;42.158;24.732;2023-05-19T05:06:46;7.00;;;4.05;;
8050;SDS011;4068;42.158;24.732;2023-05-19T05:09:15;7.70;;;4.45;;
8050;SDS011;4068;42.158;24.732;2023-05-19T05:11:41;8.35;;;4.40;;
8050;SDS011;4068;42.158;24.732;2023-05-19T05:14:08;4.65;;;4.03;;
8050;SDS011;4068;42.158;24.732;2023-05-19T05:16:33;8.35;;;4.30;;
8050;SDS011;4068;42.158;24.732;2023-05-19T05:19:00;7.10;;;3.88;;
8050;SDS011;4068;42.158;24.732;2023-05-19T05:21:26;5.47;;;3.80;;
8050;SDS011;4068;42.158;24.732;2023-05-19T05:23:52;3.90;;;3.50;;
8050;SDS011;4068;42.158;24.732;2023-05-19T05:26:18;6.15;;;4.30;;
8050;SDS011;4068;42.158;24.732;2023-05-19T05:28:47;5.32;;;4.28;;
8050;SDS011;4068;42.158;24.732;2023-05-19T05:31:13;7.93;;;4.57;;
8050;SDS011;4068;42.158;24.732;2023-05-19T05:33:39;6.28;;;4.00;;
8050;SDS011;4068;42.158;24.732;2023-05-19T05:36:05;7.03;;;4.50;;
8050;SDS011;4068;42.158;24.732;2023-05-19T05:38:31;4.45;;;4.03;;
8050;SDS011;4068;42.158;24.732;2023-05-19T05:40:56;13.25;;;4.60;;
8050;SDS011;4068;42.158;24.732;2023-05-19T05:43:22;7.05;;;4.80;;
8050;SDS011;4068;42.158;24.732;2023-05-19T05:45:47;8.40;;;4.75;;
8050;SDS011;4068;42.158;24.732;2023-05-19T05:48:13;4.88;;;4.10;;
8050;SDS011;4068;42.158;24.732;2023-05-19T05:50:38;5.28;;;4.28;;
8050;SDS011;4068;42.158;24.732;2023-05-19T05:53:06;11.63;;;5.07;;
8050;SDS011;4068;42.158;24.732;2023-05-19T05:55:33;11.40;;;4.68;;
8050;SDS011;4068;42.158;24.732;2023-05-19T05:57:59;8.18;;;5.35;;
8050;SDS011;4068;42.158;24.732;2023-05-19T06:00:26;7.68;;;4.75;;
8050;SDS011;4068;42.158;24.732;2023-05-19T06:02:52;7.18;;;5.13;;
8050;SDS011;4068;42.158;24.732;2023-05-19T06:05:17;9.60;;;5.20;;
8050;SDS011;4068;42.158;24.732;2023-05-19T06:07:43;7.47;;;4.78;;
8050;SDS011;4068;42.158;24.732;2023-05-19T06:10:08;6.65;;;5.07;;
8050;SDS011;4068;42.158;24.732;2023-05-19T06:12:34;15.65;;;7.30;;
8050;SDS011;4068;42.158;24.732;2023-05-19T06:15:03;5.45;;;4.90;;
8050;SDS011;4068;42.158;24.732;2023-05-19T06:17:29;8.20;;;5.20;;
8050;SDS011;4068;42.158;24.732;2023-05-19T06:19:55;11.05;;;5.30;;
8050;SDS011;4068;42.158;24.732;2023-05-19T06:22:21;15.00;;;5.13;;
8050;SDS011;4068;42.158;24.732;2023-05-19T06:24:46;10.82;;;5.38;;
8050;SDS011;4068;42.158;24.732;2023-05-19T06:27:12;8.32;;;5.30;;
8050;SDS011;4068;42.158;24.732;2023-05-19T06:29:37;8.60;;;5.00;;
8050;SDS011;4068;42.158;24.732;2023-05-19T06:32:03;8.10;;;5.40;;
8050;SDS011;4068;42.158;24.732;2023-05-19T06:34:28;6.05;;;5.32;;
8050;SDS011;4068;42.158;24.732;2023-05-19T06:36:54;7.53;;;5.05;;
8050;SDS011;4068;42.158;24.732;2023-05-19T06:39:19;10.98;;;5.38;;
8050;SDS011;4068;42.158;24.732;2023-05-19T06:41:45;5.93;;;5.20;;
8050;SDS011;4068;42.158;24.732;2023-05-19T06:44:10;11.57;;;4.97;;
8050;SDS011;4068;42.158;24.732;2023-05-19T06:46:35;7.97;;;6.07;;
8050;SDS011;4068;42.158;24.732;2023-05-19T06:49:01;9.85;;;5.50;;
8050;SDS011;4068;42.158;24.732;2023-05-19T06:51:26;11.05;;;6.70;;
8050;SDS011;4068;42.158;24.732;2023-05-19T06:53:52;13.90;;;6.45;;
8050;SDS011;4068;42.158;24.732;2023-05-19T06:56:17;7.53;;;5.72;;
8050;SDS011;4068;42.158;24.732;2023-05-19T06:58:43;7.18;;;4.97;;
8050;SDS011;4068;42.158;24.732;2023-05-19T07:01:09;7.03;;;5.80;;
8050;SDS011;4068;42.158;24.732;2023-05-19T07:03:34;13.95;;;5.47;;
8050;SDS011;4068;42.158;24.732;2023-05-19T07:06:00;10.38;;;5.70;;
8050;SDS011;4068;42.158;24.732;2023-05-19T07:08:26;8.38;;;5.68;;
8050;SDS011;4068;42.158;24.732;2023-05-19T07:10:52;9.55;;;6.28;;
8050;SDS011;4068;42.158;24.732;2023-05-19T07:13:18;8.18;;;5.35;;
8050;SDS011;4068;42.158;24.732;2023-05-19T07:15:43;8.73;;;4.72;;
8050;SDS011;4068;42.158;24.732;2023-05-19T07:18:09;10.27;;;5.43;;
8050;SDS011;4068;42.158;24.732;2023-05-19T07:20:34;7.28;;;5.13;;
8050;SDS011;4068;42.158;24.732;2023-05-19T07:22:59;10.25;;;6.07;;
8050;SDS011;4068;42.158;24.732;2023-05-19T07:25:26;6.93;;;5.63;;
8050;SDS011;4068;42.158;24.732;2023-05-19T07:27:54;12.50;;;5.85;;
8050;SDS011;4068;42.158;24.732;2023-05-19T07:30:20;6.82;;;5.38;;
8050;SDS011;4068;42.158;24.732;2023-05-19T07:32:46;7.13;;;5.78;;
8050;SDS011;4068;42.158;24.732;2023-05-19T07:35:11;8.68;;;5.60;;
8050;SDS011;4068;42.158;24.732;2023-05-19T07:37:36;8.13;;;5.57;;
8050;SDS011;4068;42.158;24.732;2023-05-19T07:40:02;7.90;;;5.95;;
8050;SDS011;4068;42.158;24.732;2023-05-19T07:42:29;7.90;;;5.65;;
8050;SDS011;4068;42.158;24.732;2023-05-19T07:44:54;9.45;;;5.35;;
8050;SDS011;4068;42.158;24.732;2023-05-19T07:47:19;11.55;;;6.10;;
8050;SDS011;4068;42.158;24.732;2023-05-19T07:49:45;10.48;;;5.95;;
8050;SDS011;4068;42.158;24.732;2023-05-19T07:52:11;11.00;;;6.88;;
8050;SDS011;4068;42.158;24.732;2023-05-19T07:54:36;11.20;;;6.47;;
8050;SDS011;4068;42.158;24.732;2023-05-19T07:57:02;12.38;;;6.50;;
8050;SDS011;4068;42.158;24.732;2023-05-19T07:59:27;11.55;;;6.15;;
8050;SDS011;4068;42.158;24.732;2023-05-19T08:01:53;13.10;;;6.05;;
8050;SDS011;4068;42.158;24.732;2023-05-19T08:04:18;16.73;;;7.22;;
8050;SDS011;4068;42.158;24.732;2023-05-19T08:06:44;10.23;;;6.47;;
8050;SDS011;4068;42.158;24.732;2023-05-19T08:11:54;9.30;;;6.10;;
8050;SDS011;4068;42.158;24.732;2023-05-19T08:14:19;7.72;;;5.70;;
8050;SDS011;4068;42.158;24.732;2023-05-19T08:16:47;10.52;;;6.25;;
8050;SDS011;4068;42.158;24.732;2023-05-19T08:19:12;10.40;;;7.07;;
8050;SDS011;4068;42.158;24.732;2023-05-19T08:21:38;13.57;;;6.80;;
8050;SDS011;4068;42.158;24.732;2023-05-19T08:24:03;13.20;;;6.70;;
8050;SDS011;4068;42.158;24.732;2023-05-19T08:26:29;8.30;;;6.90;;
8050;SDS011;4068;42.158;24.732;2023-05-19T08:28:54;10.77;;;6.57;;
8050;SDS011;4068;42.158;24.732;2023-05-19T08:31:20;10.48;;;6.53;;
8050;SDS011;4068;42.158;24.732;2023-05-19T08:33:46;9.55;;;6.85;;
8050;SDS011;4068;42.158;24.732;2023-05-19T08:36:12;7.88;;;6.75;;
8050;SDS011;4068;42.158;24.732;2023-05-19T08:38:37;7.90;;;6.25;;
8050;SDS011;4068;42.158;24.732;2023-05-19T08:41:03;10.55;;;6.85;;
8050;SDS011;4068;42.158;24.732;2023-05-19T08:43:29;9.48;;;7.07;;
8050;SDS011;4068;42.158;24.732;2023-05-19T08:45:55;10.07;;;6.68;;
8050;SDS011;4068;42.158;24.732;2023-05-19T08:48:23;11.10;;;6.35;;
8050;SDS011;4068;42.158;24.732;2023-05-19T08:53:33;10.35;;;7.13;;
8050;SDS011;4068;42.158;24.732;2023-05-19T08:56:03;12.85;;;8.70;;
8050;SDS011;4068;42.158;24.732;2023-05-19T08:58:39;13.63;;;7.60;;
8050;SDS011;4068;42.158;24.732;2023-05-19T09:01:07;10.50;;;6.97;;
8050;SDS011;4068;42.158;24.732;2023-05-19T09:03:33;8.85;;;6.38;;
8050;SDS011;4068;42.158;24.732;2023-05-19T09:06:04;9.43;;;7.03;;
8050;SDS011;4068;42.158;24.732;2023-05-19T09:08:31;10.63;;;7.03;;
8050;SDS011;4068;42.158;24.732;2023-05-19T09:10:57;14.18;;;7.03;;
8050;SDS011;4068;42.158;24.732;2023-05-19T09:13:22;9.45;;;6.70;;
8050;SDS011;4068;42.158;24.732;2023-05-19T09:15:47;10.50;;;7.10;;
8050;SDS011;4068;42.158;24.732;2023-05-19T09:18:14;8.50;;;7.00;;
8050;SDS011;4068;42.158;24.732;2023-05-19T09:20:41;13.20;;;7.38;;
8050;SDS011;4068;42.158;24.732;2023-05-19T09:23:16;12.65;;;7.50;;
8050;SDS011;4068;42.158;24.732;2023-05-19T09:25:45;11.25;;;6.80;;
8050;SDS011;4068;42.158;24.732;2023-05-19T09:28:34;9.70;;;7.25;;
8050;SDS011;4068;42.158;24.732;2023-05-19T09:31:01;9.18;;;6.75;;
8050;SDS011;4068;42.158;24.732;2023-05-19T09:33:34;10.20;;;7.07;;
8050;SDS011;4068;42.158;24.732;2023-05-19T09:36:02;11.18;;;7.43;;
8050;SDS011;4068;42.158;24.732;2023-05-19T09:38:30;11.10;;;6.75;;
8050;SDS011;4068;42.158;24.732;2023-05-19T09:40:56;13.82;;;7.13;;
8050;SDS011;4068;42.158;24.732;2023-05-19T09:43:22;10.32;;;7.40;;
8050;SDS011;4068;42.158;24.732;2023-05-19T09:45:53;13.27;;;6.85;;
8050;SDS011;4068;42.158;24.732;2023-05-19T09:48:19;9.73;;;7.07;;
8050;SDS011;4068;42.158;24.732;2023-05-19T09:50:45;11.20;;;7.97;;
8050;SDS011;4068;42.158;24.732;2023-05-19T09:53:13;13.50;;;7.50;;
8050;SDS011;4068;42.158;24.732;2023-05-19T09:55:39;14.90;;;7.60;;
8050;SDS011;4068;42.158;24.732;2023-05-19T09:58:05;12.65;;;7.63;;
8050;SDS011;4068;42.158;24.732;2023-05-19T10:00:31;13.13;;;7.57;;
8050;SDS011;4068;42.158;24.732;2023-05-19T10:02:57;11.65;;;8.13;;
8050;SDS011;4068;42.158;24.732;2023-05-19T10:05:24;8.75;;;7.20;;
8050;SDS011;4068;42.158;24.732;2023-05-19T10:07:52;11.13;;;7.53;;
8050;SDS011;4068;42.158;24.732;2023-05-19T10:10:18;12.30;;;7.47;;
8050;SDS011;4068;42.158;24.732;2023-05-19T10:12:45;14.35;;;7.60;;
8050;SDS011;4068;42.158;24.732;2023-05-19T10:15:11;13.82;;;8.23;;
8050;SDS011;4068;42.158;24.732;2023-05-19T10:17:38;15.02;;;8.90;;
8050;SDS011;4068;42.158;24.732;2023-05-19T10:20:09;13.15;;;7.70;;
8050;SDS011;4068;42.158;24.732;2023-05-19T10:22:36;13.73;;;7.80;;
8050;SDS011;4068;42.158;24.732;2023-05-19T10:25:03;12.40;;;7.80;;
8050;SDS011;4068;42.158;24.732;2023-05-19T10:27:29;12.35;;;7.95;;
8050;SDS011;4068;42.158;24.732;2023-05-19T10:29:58;13.98;;;8.63;;
8050;SDS011;4068;42.158;24.732;2023-05-19T10:32:29;14.00;;;8.77;;
8050;SDS011;4068;42.158;24.732;2023-05-19T10:38:02;14.15;;;8.15;;
8050;SDS011;4068;42.158;24.732;2023-05-19T10:40:52;12.10;;;7.85;;
8050;SDS011;4068;42.158;24.732;2023-05-19T10:43:29;15.57;;;8.00;;
8050;SDS011;4068;42.158;24.732;2023-05-19T10:46:08;15.73;;;8.60;;
8050;SDS011;4068;42.158;24.732;2023-05-19T10:48:34;13.80;;;8.88;;
8050;SDS011;4068;42.158;24.732;2023-05-19T10:51:02;12.98;;;8.07;;
8050;SDS011;4068;42.158;24.732;2023-05-19T10:53:29;16.88;;;9.93;;
8050;SDS011;4068;42.158;24.732;2023-05-19T10:56:01;10.90;;;8.23;;
8050;SDS011;4068;42.158;24.732;2023-05-19T11:01:11;12.95;;;8.55;;
8050;SDS011;4068;42.158;24.732;2023-05-19T11:03:44;12.57;;;8.00;;
8050;SDS011;4068;42.158;24.732;2023-05-19T11:06:26;15.93;;;8.15;;
8050;SDS011;4068;42.158;24.732;2023-05-19T11:08:56;9.80;;;7.70;;
8050;SDS011;4068;42.158;24.732;2023-05-19T11:11:25;14.00;;;7.20;;
8050;SDS011;4068;42.158;24.732;2023-05-19T11:13:55;14.85;;;7.90;;
8050;SDS011;4068;42.158;24.732;2023-05-19T11:16:27;22.77;;;8.90;;
8050;SDS011;4068;42.158;24.732;2023-05-19T11:19:03;10.30;;;7.45;;
8050;SDS011;4068;42.158;24.732;2023-05-19T11:21:49;13.88;;;8.25;;
8050;SDS011;4068;42.158;24.732;2023-05-19T11:27:44;11.93;;;6.50;;
8050;SDS011;4068;42.158;24.732;2023-05-19T11:30:07;12.38;;;6.63;;
8050;SDS011;4068;42.158;24.732;2023-05-19T11:32:39;9.95;;;6.75;;
8050;SDS011;4068;42.158;24.732;2023-05-19T11:35:08;11.20;;;6.97;;
8050;SDS011;4068;42.158;24.732;2023-05-19T11:37:35;10.40;;;6.43;;
8050;SDS011;4068;42.158;24.732;2023-05-19T11:40:01;12.07;;;6.35;;
8050;SDS011;4068;42.158;24.732;2023-05-19T11:42:31;7.40;;;6.28;;
8050;SDS011;4068;42.158;24.732;2023-05-19T11:44:58;7.80;;;6.05;;
8050;SDS011;4068;42.158;24.732;2023-05-19T11:47:24;8.57;;;6.18;;
8050;SDS011;4068;42.158;24.732;2023-05-19T11:49:50;15.00;;;7.10;;
8050;SDS011;4068;42.158;24.732;2023-05-19T11:52:24;16.33;;;7.53;;
8050;SDS011;4068;42.158;24.732;2023-05-19T11:54:51;8.75;;;5.95;;
8050;SDS011;4068;42.158;24.732;2023-05-19T11:57:17;11.75;;;7.43;;
8050;SDS011;4068;42.158;24.732;2023-05-19T11:59:42;8.10;;;6.70;;
8050;SDS011;4068;42.158;24.732;2023-05-19T12:02:19;16.77;;;7.57;;
8050;SDS011;4068;42.158;24.732;2023-05-19T12:04:49;11.95;;;6.55;;
8050;SDS011;4068;42.158;24.732;2023-05-19T12:07:16;13.30;;;6.65;;
8050;SDS011;4068;42.158;24.732;2023-05-19T12:09:46;11.73;;;7.65;;
8050;SDS011;4068;42.158;24.732;2023-05-19T12:12:12;9.23;;;6.20;;
8050;SDS011;4068;42.158;24.732;2023-05-19T12:14:42;9.90;;;7.00;;
8050;SDS011;4068;42.158;24.732;2023-05-19T12:17:10;11.45;;;7.07;;
8050;SDS011;4068;42.158;24.732;2023-05-19T12:19:37;12.00;;;6.70;;
8050;SDS011;4068;42.158;24.732;2023-05-19T12:22:04;10.32;;;6.10;;
8050;SDS011;4068;42.158;24.732;2023-05-19T12:24:31;10.15;;;5.90;;
8050;SDS011;4068;42.158;24.732;2023-05-19T12:27:11;10.07;;;6.32;;
8050;SDS011;4068;42.158;24.732;2023-05-19T12:29:40;11.93;;;6.93;;
8050;SDS011;4068;42.158;24.732;2023-05-19T12:32:06;10.25;;;6.70;;
8050;SDS011;4068;42.158;24.732;2023-05-19T12:34:36;8.90;;;6.00;;
8050;SDS011;4068;42.158;24.732;2023-05-19T12:37:02;12.43;;;6.93;;
8050;SDS011;4068;42.158;24.732;2023-05-19T12:39:29;20.70;;;7.28;;
8050;SDS011;4068;42.158;24.732;2023-05-19T12:42:06;8.52;;;6.72;;
8050;SDS011;4068;42.158;24.732;2023-05-19T12:44:36;11.98;;;6.80;;
8050;SDS011;4068;42.158;24.732;2023-05-19T12:47:12;9.27;;;6.78;;
8050;SDS011;4068;42.158;24.732;2023-05-19T12:52:33;10.00;;;6.70;;
8050;SDS011;4068;42.158;24.732;2023-05-19T12:55:10;8.68;;;6.15;;
8050;SDS011;4068;42.158;24.732;2023-05-19T12:57:37;9.43;;;7.03;;
8050;SDS011;4068;42.158;24.732;2023-05-19T13:00:17;12.10;;;7.05;;
8050;SDS011;4068;42.158;24.732;2023-05-19T13:05:24;10.25;;;6.97;;
8050;SDS011;4068;42.158;24.732;2023-05-19T13:08:03;9.43;;;6.93;;
8050;SDS011;4068;42.158;24.732;2023-05-19T13:10:33;11.90;;;7.00;;
8050;SDS011;4068;42.158;24.732;2023-05-19T13:13:00;9.40;;;6.43;;
8050;SDS011;4068;42.158;24.732;2023-05-19T13:15:27;8.00;;;5.95;;
8050;SDS011;4068;42.158;24.732;2023-05-19T13:17:55;9.23;;;6.72;;
8050;SDS011;4068;42.158;24.732;2023-05-19T13:20:21;11.68;;;7.03;;
8050;SDS011;4068;42.158;24.732;2023-05-19T13:22:47;6.97;;;6.20;;
8050;SDS011;4068;42.158;24.732;2023-05-19T13:25:13;11.13;;;7.15;;
8050;SDS011;4068;42.158;24.732;2023-05-19T13:27:39;7.45;;;6.03;;
8050;SDS011;4068;42.158;24.732;2023-05-19T13:30:05;11.18;;;6.90;;
8050;SDS011;4068;42.158;24.732;2023-05-19T13:32:31;8.75;;;6.43;;
8050;SDS011;4068;42.158;24.732;2023-05-19T13:34:57;8.80;;;6.00;;
8050;SDS011;4068;42.158;24.732;2023-05-19T13:37:23;10.82;;;6.50;;
8050;SDS011;4068;42.158;24.732;2023-05-19T13:39:49;9.57;;;6.85;;
8050;SDS011;4068;42.158;24.732;2023-05-19T13:42:14;10.02;;;6.63;;
8050;SDS011;4068;42.158;24.732;2023-05-19T13:44:41;12.48;;;7.22;;
8050;SDS011;4068;42.158;24.732;2023-05-19T13:47:07;8.43;;;6.35;;
8050;SDS011;4068;42.158;24.732;2023-05-19T13:49:32;13.90;;;7.30;;
8050;SDS011;4068;42.158;24.732;2023-05-19T13:51:58;11.48;;;6.53;;
8050;SDS011;4068;42.158;24.732;2023-05-19T13:54:23;13.05;;;7.57;;
8050;SDS011;4068;42.158;24.732;2023-05-19T13:56:49;11.10;;;7.10;;
8050;SDS011;4068;42.158;24.732;2023-05-19T13:59:14;11.80;;;7.18;;
8050;SDS011;4068;42.158;24.732;2023-05-19T14:01:41;12.05;;;6.80;;
8050;SDS011;4068;42.158;24.732;2023-05-19T14:04:07;14.43;;;7.10;;
8050;SDS011;4068;42.158;24.732;2023-05-19T14:06:33;8.32;;;6.60;;
8050;SDS011;4068;42.158;24.732;2023-05-19T14:08:58;10.30;;;7.05;;
8050;SDS011;4068;42.158;24.732;2023-05-19T14:11:23;9.55;;;6.97;;
8050;SDS011;4068;42.158;24.732;2023-05-19T14:13:50;12.07;;;7.10;;
8050;SDS011;4068;42.158;24.732;2023-05-19T14:16:16;9.13;;;7.40;;
8050;SDS011;4068;42.158;24.732;2023-05-19T14:18:42;8.73;;;7.10;;
8050;SDS011;4068;42.158;24.732;2023-05-19T14:21:07;9.48;;;7.35;;
8050;SDS011;4068;42.158;24.732;2023-05-19T14:23:33;10.50;;;6.30;;
8050;SDS011;4068;42.158;24.732;2023-05-19T14:25:58;12.45;;;6.63;;
8050;SDS011;4068;42.158;24.732;2023-05-19T14:28:24;12.27;;;7.03;;
8050;SDS011;4068;42.158;24.732;2023-05-19T14:30:50;5.60;;;4.95;;
8050;SDS011;4068;42.158;24.732;2023-05-19T14:33:16;13.18;;;5.88;;
8050;SDS011;4068;42.158;24.732;2023-05-19T14:35:41;11.40;;;5.20;;
8050;SDS011;4068;42.158;24.732;2023-05-19T14:38:07;8.40;;;5.15;;
8050;SDS011;4068;42.158;24.732;2023-05-19T14:40:32;12.25;;;6.25;;
8050;SDS011;4068;42.158;24.732;2023-05-19T14:43:00;9.35;;;5.10;;
8050;SDS011;4068;42.158;24.732;2023-05-19T14:45:25;7.53;;;5.53;;
8050;SDS011;4068;42.158;24.732;2023-05-19T14:47:50;12.48;;;4.88;;
8050;SDS011;4068;42.158;24.732;2023-05-19T14:50:16;8.88;;;6.30;;
8050;SDS011;4068;42.158;24.732;2023-05-19T14:52:42;8.13;;;5.35;;
8050;SDS011;4068;42.158;24.732;2023-05-19T14:55:07;8.70;;;5.55;;
8050;SDS011;4068;42.158;24.732;2023-05-19T14:57:33;8.93;;;6.38;;
8050;SDS011;4068;42.158;24.732;2023-05-19T14:59:58;10.15;;;6.25;;
8050;SDS011;4068;42.158;24.732;2023-05-19T15:02:24;24.25;;;7.95;;
8050;SDS011;4068;42.158;24.732;2023-05-19T15:04:49;10.20;;;6.70;;
8050;SDS011;4068;42.158;24.732;2023-05-19T15:07:14;12.73;;;6.47;;
8050;SDS011;4068;42.158;24.732;2023-05-19T15:09:40;15.20;;;7.28;;
8050;SDS011;4068;42.158;24.732;2023-05-19T15:12:05;10.60;;;6.57;;
8050;SDS011;4068;42.158;24.732;2023-05-19T15:14:31;9.77;;;6.57;;
8050;SDS011;4068;42.158;24.732;2023-05-19T15:16:56;13.15;;;7.00;;
8050;SDS011;4068;42.158;24.732;2023-05-19T15:19:22;15.20;;;8.35;;
8050;SDS011;4068;42.158;24.732;2023-05-19T15:21:47;13.88;;;7.93;;
8050;SDS011;4068;42.158;24.732;2023-05-19T15:24:14;17.42;;;8.10;;
8050;SDS011;4068;42.158;24.732;2023-05-19T15:26:40;14.82;;;8.68;;
8050;SDS011;4068;42.158;24.732;2023-05-19T15:29:05;12.75;;;9.57;;
8050;SDS011;4068;42.158;24.732;2023-05-19T15:31:31;14.68;;;8.35;;